createdAt,value
2023-09-05T00:02:06.471Z,99081.69
2023-09-05T00:05:10.356Z,99080.88
2023-09-05T00:08:13.031Z,99078.88
2023-09-05T00:11:15.630Z,99079.31
2023-09-05T00:14:21.614Z,99070.91
2023-09-05T00:17:24.398Z,99071.34
2023-09-05T00:20:27.788Z,99058.13
2023-09-05T00:23:30.349Z,99056.56
2023-09-05T00:26:32.963Z,99052.97
2023-09-05T00:29:36.853Z,99056.16
2023-09-05T00:32:41.827Z,99044.97
2023-09-05T00:35:44.866Z,99050.97
2023-09-05T00:38:49.016Z,99056.56
2023-09-05T00:41:51.524Z,99052.19
2023-09-05T00:44:56.797Z,99062.59
2023-09-05T00:48:02.184Z,99066.19
2023-09-05T00:51:04.759Z,99056.19
2023-09-05T00:54:08.057Z,99051.81
2023-09-05T00:57:12.337Z,99055.78
2023-09-05T01:00:18.938Z,99063.41
2023-09-05T01:03:21.680Z,99064.19
2023-09-05T01:06:27.083Z,99063.00
2023-09-05T01:09:35.737Z,99057.00
2023-09-05T01:12:38.398Z,99064.19
2023-09-05T01:15:43.737Z,99064.59
2023-09-05T01:18:46.382Z,99064.59
2023-09-05T01:22:03.857Z,99064.59
2023-09-05T01:25:09.338Z,99067.81
2023-09-05T01:28:14.113Z,99062.66
2023-09-05T01:31:17.004Z,99065.44
2023-09-05T01:34:19.606Z,99071.84
2023-09-05T01:37:22.222Z,99070.25
2023-09-05T01:40:26.297Z,99070.63
2023-09-05T01:43:28.887Z,99067.03
2023-09-05T01:46:31.504Z,99059.44
2023-09-05T01:49:34.080Z,99058.66
2023-09-05T01:52:36.596Z,99044.66
2023-09-05T01:55:40.655Z,99051.47
2023-09-05T01:58:43.244Z,99045.88
2023-09-05T02:01:45.804Z,99048.69
2023-09-05T02:04:48.444Z,99038.69
2023-09-05T02:07:50.970Z,99051.91
2023-09-05T02:10:54.870Z,99038.34
2023-09-05T02:13:57.347Z,99045.09
2023-09-05T02:16:59.953Z,99040.72
2023-09-05T02:20:02.590Z,99042.31
2023-09-05T02:23:05.621Z,99035.94
2023-09-05T02:26:10.129Z,99045.09
2023-09-05T02:29:12.668Z,99038.34
2023-09-05T02:32:15.193Z,99035.56
2023-09-05T02:35:17.839Z,99052.34
2023-09-05T02:38:20.450Z,99040.34
2023-09-05T02:41:24.392Z,99042.78
2023-09-05T02:44:26.958Z,99039.97
2023-09-05T02:47:29.563Z,99039.97
2023-09-05T02:50:32.167Z,99053.13
2023-09-05T02:53:34.988Z,99052.34
2023-09-05T02:56:38.873Z,99059.56
2023-09-05T02:59:41.466Z,99055.97
2023-09-05T03:02:44.970Z,99060.78
2023-09-05T03:05:47.694Z,99055.59
2023-09-05T03:08:50.299Z,99059.19
2023-09-05T03:11:54.225Z,99062.38
2023-09-05T03:14:56.749Z,99067.97
2023-09-05T03:17:59.337Z,99074.78
2023-09-05T03:21:02.041Z,99073.97
2023-09-05T03:24:05.026Z,99066.81
2023-09-05T03:27:09.096Z,99063.63
2023-09-05T03:30:12.809Z,99053.63
2023-09-05T03:33:15.428Z,99054.44
2023-09-05T03:36:18.146Z,99065.63
2023-09-05T03:39:20.732Z,99071.22
2023-09-05T03:42:24.704Z,99058.44
2023-09-05T03:45:28.491Z,99052.03
2023-09-05T03:48:31.225Z,99059.63
2023-09-05T03:51:33.827Z,99054.88
2023-09-05T03:54:36.361Z,99054.22
2023-09-05T03:57:41.303Z,99049.91
2023-09-05T04:00:43.888Z,99046.41
2023-09-05T04:03:47.646Z,99038.47
2023-09-05T04:06:50.245Z,99044.84
2023-09-05T04:09:54.311Z,99044.47
2023-09-05T04:12:58.248Z,99042.47
2023-09-05T04:16:04.337Z,99048.13
2023-09-05T04:19:07.530Z,99043.75
2023-09-05T04:22:10.093Z,99045.34
2023-09-05T04:25:12.818Z,99053.34
2023-09-05T04:28:17.750Z,99050.97
2023-09-05T04:31:20.846Z,99052.16
2023-09-05T04:34:23.670Z,99043.81
2023-09-05T04:37:26.520Z,99047.38
2023-09-05T04:40:29.211Z,99046.59
2023-09-05T04:43:33.222Z,99047.38
2023-09-05T04:46:39.387Z,99049.38
2023-09-05T04:49:42.035Z,99043.00
2023-09-05T04:52:44.569Z,99047.38
2023-09-05T04:55:49.155Z,99047.00
2023-09-05T04:58:53.157Z,99039.00
2023-09-05T05:01:55.708Z,99039.41
2023-09-05T05:04:58.289Z,99039.44
2023-09-05T05:08:00.941Z,99039.44
2023-09-05T05:11:05.168Z,99046.59
2023-09-05T05:14:09.051Z,99045.00
2023-09-05T05:17:14.114Z,99051.75
2023-09-05T05:20:19.220Z,99051.78
2023-09-05T05:23:21.816Z,99062.13
2023-09-05T05:26:24.529Z,99060.94
2023-09-05T05:29:33.227Z,99062.13
2023-09-05T05:32:36.106Z,99059.72
2023-09-05T05:35:39.006Z,99060.13
2023-09-05T05:38:41.903Z,99056.94
2023-09-05T05:41:44.557Z,99054.53
2023-09-05T05:44:48.628Z,99056.16
2023-09-05T05:47:51.234Z,99061.75
2023-09-05T05:50:53.958Z,99063.31
2023-09-05T05:53:56.487Z,99064.50
2023-09-05T05:56:59.046Z,99060.13
2023-09-05T06:00:05.780Z,99062.50
2023-09-05T06:03:12.253Z,99059.31
2023-09-05T06:06:15.140Z,99068.84
2023-09-05T06:09:19.601Z,99071.25
2023-09-05T06:12:22.249Z,99065.63
2023-09-05T06:15:26.198Z,99064.84
2023-09-05T06:18:29.343Z,99069.59
2023-09-05T06:21:32.200Z,99064.03
2023-09-05T06:24:36.221Z,99070.78
2023-09-05T06:27:39.727Z,99072.38
2023-09-05T06:30:43.620Z,99077.16
2023-09-05T06:33:46.302Z,99069.56
2023-09-05T06:36:48.876Z,99059.56
2023-09-05T06:39:51.408Z,99066.41
2023-09-05T06:42:54.061Z,99059.19
2023-09-05T06:46:03.796Z,99062.38
2023-09-05T06:49:06.569Z,99065.16
2023-09-05T06:52:09.166Z,99061.16
2023-09-05T06:55:13.383Z,99063.94
2023-09-05T06:58:16.307Z,99072.72
2023-09-05T07:01:20.322Z,99078.66
2023-09-05T07:04:23.002Z,99079.88
2023-09-05T07:07:25.685Z,99089.44
2023-09-05T07:10:28.585Z,99085.03
2023-09-05T07:13:31.045Z,99086.22
2023-09-05T07:16:35.006Z,99082.59
2023-09-05T07:19:37.915Z,99082.22
2023-09-05T07:22:40.609Z,99088.97
2023-09-05T07:25:43.231Z,99081.38
2023-09-05T07:28:47.919Z,99075.38
2023-09-05T07:31:52.078Z,99075.00
2023-09-05T07:34:55.765Z,99091.72
2023-09-05T07:37:58.354Z,99082.16
2023-09-05T07:41:04.365Z,99076.94
2023-09-05T07:44:07.263Z,99078.91
2023-09-05T07:47:11.228Z,99092.50
2023-09-05T07:50:13.824Z,99083.69
2023-09-05T07:53:16.665Z,99082.09
2023-09-05T07:56:19.284Z,99086.47
2023-09-05T07:59:21.863Z,99076.47
2023-09-05T08:02:25.758Z,99073.28
2023-09-05T08:05:28.308Z,99082.03
2023-09-05T08:08:30.816Z,99070.47
2023-09-05T08:11:33.492Z,99076.44
2023-09-05T08:14:36.004Z,99069.63
2023-09-05T08:17:40.124Z,99069.22
2023-09-05T08:20:44.081Z,99074.44
2023-09-05T08:23:46.821Z,99070.44
2023-09-05T08:26:49.398Z,99073.63
2023-09-05T08:29:52.003Z,99074.03
2023-09-05T08:32:56.511Z,99078.41
2023-09-05T08:35:59.163Z,99071.59
2023-09-05T08:39:01.707Z,99070.38
2023-09-05T08:42:06.099Z,99068.38
2023-09-05T08:45:13.480Z,99067.97
2023-09-05T08:48:17.506Z,99064.78
2023-09-05T08:51:20.544Z,99057.19
2023-09-05T08:54:24.663Z,99061.56
2023-09-05T08:57:27.984Z,99051.97
2023-09-05T09:00:30.524Z,99056.34
2023-09-05T09:03:36.834Z,99055.13
2023-09-05T09:06:39.569Z,99051.16
2023-09-05T09:09:42.129Z,99049.16
2023-09-05T09:12:44.745Z,99049.53
2023-09-05T09:15:48.036Z,99053.91
2023-09-05T09:19:01.350Z,99047.53
2023-09-05T09:22:05.050Z,99052.69
2023-09-05T09:25:13.122Z,99061.09
2023-09-05T09:28:23.013Z,99057.91
2023-09-05T09:31:27.264Z,99056.69
2023-09-05T09:34:31.928Z,99054.69
2023-09-05T09:37:35.243Z,99057.06
2023-09-05T09:40:38.280Z,99056.28
2023-09-05T09:43:40.898Z,99054.28
2023-09-05T09:46:44.523Z,99044.66
2023-09-05T09:49:50.194Z,99043.47
2023-09-05T09:52:54.422Z,99045.06
2023-09-05T09:55:58.175Z,99035.88
2023-09-05T09:59:01.955Z,99029.09
2023-09-05T10:02:12.876Z,99029.09
2023-09-05T10:05:20.352Z,99027.88
2023-09-05T10:08:23.190Z,99026.66
2023-09-05T10:11:25.636Z,99020.66
2023-09-05T10:14:28.817Z,99019.06
2023-09-05T10:17:31.928Z,99009.88
2023-09-05T10:20:36.929Z,99012.25
2023-09-05T10:23:39.864Z,99012.69
2023-09-05T10:26:42.317Z,99028.22
2023-09-05T10:29:47.163Z,99025.44
2023-09-05T10:32:50.446Z,99022.63
2023-09-05T10:35:54.428Z,99021.03
2023-09-05T10:38:58.590Z,99017.03
2023-09-05T10:42:01.213Z,99005.84
2023-09-05T10:45:18.637Z,99007.44
2023-09-05T10:48:34.068Z,99013.41
2023-09-05T10:51:37.985Z,99006.22
2023-09-05T10:54:40.630Z,98992.22
2023-09-05T10:57:43.688Z,99000.19
2023-09-05T11:00:49.256Z,98995.41
2023-09-05T11:03:51.919Z,98993.81
2023-09-05T11:07:03.962Z,98995.41
2023-09-05T11:10:13.014Z,98992.59
2023-09-05T11:13:16.045Z,98992.59
2023-09-05T11:16:18.697Z,98993.44
2023-09-05T11:19:39.004Z,98997.00
2023-09-05T11:22:42.967Z,98985.03
2023-09-05T11:25:47.545Z,98981.03
2023-09-05T11:28:52.432Z,98989.41
2023-09-05T11:32:00.408Z,98981.03
2023-09-05T11:35:04.777Z,98979.81
2023-09-05T11:38:08.822Z,98974.63
2023-09-05T11:41:11.360Z,98967.81
2023-09-05T11:44:14.016Z,98970.19
2023-09-05T11:47:17.008Z,98965.41
2023-09-05T11:50:20.556Z,98955.41
2023-09-05T11:53:24.728Z,98965.41
2023-09-05T11:56:27.659Z,98957.00
2023-09-05T11:59:30.776Z,98959.81
2023-09-05T12:02:33.440Z,98956.22
2023-09-05T12:05:37.797Z,98948.19
2023-09-05T12:08:41.973Z,98953.00
2023-09-05T12:11:44.851Z,98950.19
2023-09-05T12:14:55.107Z,98948.19
2023-09-05T12:17:57.773Z,98953.78
2023-09-05T12:21:03.746Z,98948.97
2023-09-05T12:24:21.650Z,98950.59
2023-09-05T12:27:29.529Z,98947.78
2023-09-05T12:30:33.068Z,98945.00
2023-09-05T12:33:35.686Z,98940.19
2023-09-05T12:36:40.651Z,98935.38
2023-09-05T12:39:44.751Z,98927.38
2023-09-05T12:42:47.296Z,98915.38
2023-09-05T12:45:50.626Z,98909.38
2023-09-05T12:48:55.244Z,98913.75
2023-09-05T12:51:57.903Z,98910.16
2023-09-05T12:55:01.887Z,98897.78
2023-09-05T12:58:05.504Z,98900.16
2023-09-05T13:01:08.120Z,98894.56
2023-09-05T13:04:12.116Z,98891.34
2023-09-05T13:07:14.688Z,98892.91
2023-09-05T13:10:18.593Z,98883.31
2023-09-05T13:13:21.139Z,98884.09
2023-09-05T13:16:23.732Z,98875.31
2023-09-05T13:19:26.411Z,98865.69
2023-09-05T13:22:29.301Z,98867.28
2023-09-05T13:25:35.138Z,98867.63
2023-09-05T13:28:37.988Z,98853.66
2023-09-05T13:31:40.562Z,98861.66
2023-09-05T13:34:43.265Z,98859.66
2023-09-05T13:37:45.864Z,98860.47
2023-09-05T13:40:49.832Z,98859.25
2023-09-05T13:43:52.371Z,98850.84
2023-09-05T13:46:55.318Z,98859.59
2023-09-05T13:49:57.910Z,98848.81
2023-09-05T13:53:00.470Z,98846.00
2023-09-05T13:56:06.719Z,98839.56
2023-09-05T13:59:10.292Z,98841.13
2023-09-05T14:02:13.037Z,98847.13
2023-09-05T14:05:16.079Z,98839.53
2023-09-05T14:08:18.684Z,98836.28
2023-09-05T14:11:22.694Z,98841.47
2023-09-05T14:14:25.294Z,98834.28
2023-09-05T14:17:28.393Z,98837.44
2023-09-05T14:20:30.956Z,98827.03
2023-09-05T14:23:35.134Z,98826.63
2023-09-05T14:26:38.994Z,98821.84
2023-09-05T14:29:41.610Z,98827.00
2023-09-05T14:32:44.237Z,98817.38
2023-09-05T14:35:46.805Z,98816.16
2023-09-05T14:38:49.763Z,98816.94
2023-09-05T14:41:53.788Z,98804.56
2023-09-05T14:44:56.402Z,98810.16
2023-09-05T14:47:59.048Z,98808.94
2023-09-05T14:51:01.620Z,98813.31
2023-09-05T14:54:04.163Z,98817.69
2023-09-05T14:57:08.129Z,98812.91
2023-09-05T15:00:12.706Z,98810.09
2023-09-05T15:03:15.952Z,98805.28
2023-09-05T15:06:18.672Z,98818.88
2023-09-05T15:09:22.295Z,98813.28
2023-09-05T15:12:26.359Z,98801.28
2023-09-05T15:15:29.035Z,98821.25
2023-09-05T15:18:31.958Z,98808.84
2023-09-05T15:21:37.138Z,98812.44
2023-09-05T15:24:41.229Z,98813.22
2023-09-05T15:27:47.910Z,98814.78
2023-09-05T15:30:50.568Z,98808.78
2023-09-05T15:33:53.805Z,98805.56
2023-09-05T15:36:56.432Z,98811.16
2023-09-05T15:39:59.357Z,98809.47
2023-09-05T15:43:03.615Z,98809.47
2023-09-05T15:46:06.397Z,98797.84
2023-09-05T15:49:08.933Z,98805.81
2023-09-05T15:52:11.592Z,98797.41
2023-09-05T15:55:14.262Z,98801.00
2023-09-05T15:58:18.351Z,98799.03
2023-09-05T16:01:21.085Z,98803.41
2023-09-05T16:04:23.723Z,98808.56
2023-09-05T16:07:26.495Z,98808.56
2023-09-05T16:10:30.195Z,98805.75
2023-09-05T16:13:34.272Z,98812.94
2023-09-05T16:16:36.882Z,98808.13
2023-09-05T16:19:39.548Z,98809.72
2023-09-05T16:22:42.105Z,98814.13
2023-09-05T16:25:44.728Z,98816.94
2023-09-05T16:28:48.611Z,98816.09
2023-09-05T16:31:51.258Z,98822.53
2023-09-05T16:34:56.146Z,98825.31
2023-09-05T16:37:58.736Z,98821.72
2023-09-05T16:41:01.255Z,98821.72
2023-09-05T16:44:06.334Z,98817.75
2023-09-05T16:47:09.287Z,98819.78
2023-09-05T16:50:12.279Z,98818.63
2023-09-05T16:53:15.563Z,98828.22
2023-09-05T16:56:18.556Z,98824.25
2023-09-05T16:59:22.480Z,98828.28
2023-09-05T17:02:25.177Z,98828.72
2023-09-05T17:05:27.634Z,98836.28
2023-09-05T17:08:30.873Z,98840.75
2023-09-05T17:11:34.695Z,98834.78
2023-09-05T17:14:39.273Z,98840.78
2023-09-05T17:17:42.653Z,98839.22
2023-09-05T17:20:45.231Z,98851.63
2023-09-05T17:23:47.837Z,98844.44
2023-09-05T17:26:50.476Z,98837.25
2023-09-05T17:29:54.392Z,98844.09
2023-09-05T17:32:57.934Z,98856.47
2023-09-05T17:36:02.185Z,98856.47
2023-09-05T17:39:05.834Z,98860.50
2023-09-05T17:42:08.431Z,98861.72
2023-09-05T17:45:13.229Z,98867.31
2023-09-05T17:48:23.082Z,98870.91
2023-09-05T17:51:25.834Z,98868.53
2023-09-05T17:54:28.439Z,98870.97
2023-09-05T17:57:31.105Z,98871.75
2023-09-05T18:00:36.159Z,98871.75
2023-09-05T18:03:39.019Z,98878.53
2023-09-05T18:06:41.919Z,98888.94
2023-09-05T18:09:45.548Z,98886.16
2023-09-05T18:12:48.324Z,98895.75
2023-09-05T18:15:52.159Z,98893.75
2023-09-05T18:18:54.986Z,98899.00
2023-09-05T18:21:57.731Z,98911.41
2023-09-05T18:25:01.509Z,98907.03
2023-09-05T18:28:04.346Z,98911.84
2023-09-05T18:31:08.968Z,98911.00
2023-09-05T18:34:31.916Z,98917.44
2023-09-05T18:37:34.346Z,98915.41
2023-09-05T18:40:36.888Z,98916.59
2023-09-05T18:43:39.276Z,98920.63
2023-09-05T18:46:43.122Z,98923.44
2023-09-05T18:49:46.152Z,98920.63
2023-09-05T18:52:49.436Z,98919.84
2023-09-05T18:55:52.748Z,98923.06
2023-09-05T18:58:55.212Z,98918.25
2023-09-05T19:01:59.255Z,98921.06
2023-09-05T19:05:01.770Z,98925.84
2023-09-05T19:08:04.483Z,98911.88
2023-09-05T19:11:06.920Z,98911.06
2023-09-05T19:14:09.363Z,98913.09
2023-09-05T19:17:13.117Z,98914.28
2023-09-05T19:20:15.621Z,98917.09
2023-09-05T19:23:18.088Z,98924.28
2023-09-05T19:26:20.523Z,98925.50
2023-09-05T19:29:24.437Z,98936.69
2023-09-05T19:32:28.368Z,98936.69
2023-09-05T19:35:31.692Z,98933.88
2023-09-05T19:38:34.191Z,98935.91
2023-09-05T19:41:36.627Z,98932.28
2023-09-05T19:44:40.295Z,98929.47
2023-09-05T19:47:44.080Z,98937.88
2023-09-05T19:50:46.660Z,98935.06
2023-09-05T19:53:49.206Z,98947.50
2023-09-05T19:56:51.828Z,98950.28
2023-09-05T19:59:56.076Z,98943.53
2023-09-05T20:03:01.222Z,98947.13
2023-09-05T20:06:04.366Z,98946.34
2023-09-05T20:09:08.308Z,98948.34
2023-09-05T20:12:10.861Z,98951.56
2023-09-05T20:15:13.448Z,98959.13
2023-09-05T20:18:18.724Z,98956.34
2023-09-05T20:21:21.249Z,98956.75
2023-09-05T20:24:23.757Z,98950.38
2023-09-05T20:27:26.335Z,98949.59
2023-09-05T20:30:28.796Z,98971.19
2023-09-05T20:33:32.808Z,98959.59
2023-09-05T20:36:35.549Z,98965.56
2023-09-05T20:39:38.022Z,98965.56
2023-09-05T20:42:40.509Z,98959.19
2023-09-05T20:45:42.967Z,98957.59
2023-09-05T20:48:46.915Z,98957.59
2023-09-05T20:51:49.575Z,98954.03
2023-09-05T20:54:52.305Z,98948.84
2023-09-05T20:57:54.847Z,98950.06
2023-09-05T21:00:57.535Z,98950.06
2023-09-05T21:04:01.579Z,98954.03
2023-09-05T21:07:04.036Z,98947.66
2023-09-05T21:10:07.429Z,98956.06
2023-09-05T21:13:11.062Z,98954.47
2023-09-05T21:16:13.484Z,98954.47
2023-09-05T21:19:17.190Z,98962.06
2023-09-05T21:22:23.097Z,98958.47
2023-09-05T21:25:25.534Z,98953.31
2023-09-05T21:28:28.284Z,98956.09
2023-09-05T21:31:31.082Z,98960.91
2023-09-05T21:34:34.897Z,98970.53
2023-09-05T21:37:37.323Z,98975.28
2023-09-05T21:40:39.744Z,98977.69
2023-09-05T21:43:42.189Z,98976.13
2023-09-05T21:46:44.658Z,98969.69
2023-09-05T21:49:48.427Z,98965.31
2023-09-05T21:52:50.874Z,98958.13
2023-09-05T21:55:53.305Z,98952.97
2023-09-05T21:58:55.713Z,98960.56
2023-09-05T22:01:58.189Z,98951.38
2023-09-05T22:05:04.154Z,98959.00
2023-09-05T22:08:07.857Z,98951.38
2023-09-05T22:11:10.424Z,98954.19
2023-09-05T22:14:13.241Z,98961.78
2023-09-05T22:17:15.652Z,98963.78
2023-09-05T22:20:23.024Z,98953.00
2023-09-05T22:23:25.534Z,98945.81
2023-09-05T22:26:27.951Z,98945.03
2023-09-05T22:29:32.471Z,98947.41
2023-09-05T22:32:34.911Z,98955.00
2023-09-05T22:35:38.654Z,98954.22
2023-09-05T22:38:41.109Z,98948.25
2023-09-05T22:41:43.543Z,98942.66
2023-09-05T22:44:46.218Z,98941.06
2023-09-05T22:47:48.876Z,98936.25
2023-09-05T22:50:52.847Z,98940.28
2023-09-05T22:53:55.316Z,98942.25
2023-09-05T22:56:58.319Z,98951.47
2023-09-05T23:00:00.809Z,98953.06
2023-09-05T23:03:03.374Z,98957.44
2023-09-05T23:06:07.314Z,98949.84
2023-09-05T23:09:09.762Z,98956.66
2023-09-05T23:12:12.224Z,98952.28
2023-09-05T23:15:14.757Z,98959.88
2023-09-05T23:18:17.607Z,98951.50
2023-09-05T23:21:21.585Z,98951.13
2023-09-05T23:24:24.422Z,98952.31
2023-09-05T23:27:26.928Z,98950.72
2023-09-05T23:30:30.193Z,98951.50
2023-09-05T23:33:32.762Z,98949.94
2023-09-05T23:36:36.681Z,98945.13
2023-09-05T23:39:39.187Z,98939.94
2023-09-05T23:42:43.257Z,98949.94
2023-09-05T23:45:57.772Z,98948.34
2023-09-05T23:49:01.512Z,98944.75
2023-09-05T23:52:06.462Z,98951.56
2023-09-05T23:55:09.048Z,98953.56
2023-09-05T23:58:11.590Z,98949.16
